Time;durP1;ratioP1;P1;durP2;ratioP2;P2;SDS_P1;SDS_P2;PMS_P1;PMS_P2;Temp;Humidity;BMP_temperature;BMP_pressure;BME280_temperature;BME280_humidity;BME280_pressure;Samples;Min_cycle;Max_cycle;Signal;HPM_P1;HPM_P2
2023/06/27 00:01:49;;;;;;;4.88;1.60;;;22.60;66.40;;;;;;5036736;28;20032;-80
2023/06/27 00:04:15;;;;;;;6.47;1.27;;;22.60;66.40;;;;;;5018261;28;20038;-80
2023/06/27 00:06:41;;;;;;;2.05;1.00;;;22.60;66.70;;;;;;5018901;28;20036;-80
2023/06/27 00:09:10;;;;;;;2.40;1.05;;;22.60;67.00;;;;;;5018428;28;20037;-80
2023/06/27 00:11:39;;;;;;;2.60;1.10;;;22.60;67.00;;;;;;5035366;28;20474;-80
2023/06/27 00:14:07;;;;;;;2.50;1.10;;;22.60;66.90;;;;;;4998593;28;20034;-80
2023/06/27 00:16:33;;;;;;;3.60;1.05;;;22.60;67.00;;;;;;5024971;28;20105;-80
2023/06/27 00:19:04;;;;;;;2.97;1.00;;;22.50;67.30;;;;;;5021579;28;20121;-83
2023/06/27 00:21:31;;;;;;;3.50;1.13;;;22.50;67.40;;;;;;5015297;28;20037;-81
2023/06/27 00:23:57;;;;;;;3.10;0.93;;;22.50;67.40;;;;;;5018176;28;20045;-82
2023/06/27 00:26:23;;;;;;;3.55;1.20;;;22.50;67.20;;;;;;5018325;28;20026;-79
2023/06/27 00:28:49;;;;;;;2.55;1.00;;;22.50;67.20;;;;;;5007407;28;20544;-79
2023/06/27 00:31:14;;;;;;;2.55;1.13;;;22.50;67.10;;;;;;4998039;28;20034;-79
2023/06/27 00:33:40;;;;;;;1.85;0.90;;;22.50;67.00;;;;;;5016466;28;20113;-80
2023/06/27 00:36:09;;;;;;;2.05;1.00;;;22.50;67.20;;;;;;5012132;28;20025;-79
2023/06/27 00:38:35;;;;;;;1.88;0.93;;;22.50;66.90;;;;;;5015729;28;20030;-79
2023/06/27 00:41:00;;;;;;;2.40;1.20;;;22.50;66.80;;;;;;5010221;28;20479;-80
2023/06/27 00:43:29;;;;;;;6.57;1.00;;;22.50;66.50;;;;;;5019524;28;20038;-80
2023/06/27 00:45:56;;;;;;;4.72;1.08;;;22.50;66.60;;;;;;4997982;28;20029;-80
2023/06/27 00:48:22;;;;;;;2.42;1.10;;;22.40;66.80;;;;;;5014016;28;20050;-79
2023/06/27 00:50:50;;;;;;;1.75;1.00;;;22.40;66.80;;;;;;5015596;28;20537;-79
2023/06/27 00:53:17;;;;;;;2.88;0.80;;;22.40;66.90;;;;;;5015330;28;20040;-79
2023/06/27 00:55:42;;;;;;;3.45;0.73;;;22.40;66.80;;;;;;5015743;28;20026;-80
2023/06/27 00:58:11;;;;;;;3.20;0.98;;;22.40;66.90;;;;;;4997924;28;20386;-81
2023/06/27 01:00:36;;;;;;;2.75;1.05;;;22.40;66.80;;;;;;4998469;28;20036;-81
2023/06/27 01:03:05;;;;;;;5.05;1.00;;;22.40;66.70;;;;;;5015363;28;20105;-81
2023/06/27 01:05:32;;;;;;;4.20;1.10;;;22.40;66.70;;;;;;4998115;28;20056;-80
2023/06/27 01:08:09;;;;;;;2.25;0.90;;;22.30;66.60;;;;;;4997700;28;20481;-84
2023/06/27 01:10:41;;;;;;;2.35;0.77;;;22.30;66.40;;;;;;4997856;28;20387;-80
2023/06/27 01:13:13;;;;;;;1.75;0.98;;;22.30;66.20;;;;;;4997411;28;20045;-80
2023/06/27 01:15:40;;;;;;;3.00;1.25;;;22.30;66.20;;;;;;5013403;28;20120;-80
2023/06/27 01:18:09;;;;;;;3.13;0.90;;;22.20;66.10;;;;;;5018329;28;20441;-80
2023/06/27 01:20:35;;;;;;;3.83;1.02;;;22.10;66.10;;;;;;5007700;28;20176;-80
2023/06/27 01:23:09;;;;;;;2.47;0.90;;;22.10;66.30;;;;;;5026750;28;20437;-85
2023/06/27 01:25:37;;;;;;;2.47;0.70;;;22.10;66.10;;;;;;5034577;28;20409;-80
2023/06/27 01:28:03;;;;;;;2.70;0.90;;;22.10;65.90;;;;;;5033946;28;20032;-80
2023/06/27 01:30:33;;;;;;;2.08;0.77;;;22.00;65.80;;;;;;5016732;28;20025;-80
2023/06/27 01:33:04;;;;;;;2.28;0.70;;;22.10;65.90;;;;;;5034357;28;20036;-80
2023/06/27 01:35:56;;;;;;;3.30;0.90;;;22.10;65.90;;;;;;5017972;28;20385;-80
2023/06/27 01:38:30;;;;;;;;;;;22.10;65.90;;;;;;5014635;28;20042;-80
2023/06/27 01:40:58;;;;;;;2.85;0.80;;;22.10;65.90;;;;;;5008986;28;19912;-80
2023/06/27 01:43:26;;;;;;;3.22;0.90;;;22.10;66.00;;;;;;5034371;28;20025;-80
2023/06/27 01:45:52;;;;;;;3.55;0.90;;;22.00;65.90;;;;;;5016709;28;20030;-80
2023/06/27 01:48:19;;;;;;;5.47;1.00;;;22.00;66.20;;;;;;5004695;28;20105;-80
2023/06/27 01:50:45;;;;;;;4.93;1.10;;;22.00;66.30;;;;;;4993997;28;20022;-80
2023/06/27 01:53:10;;;;;;;2.10;0.85;;;21.90;66.50;;;;;;4994418;28;20033;-80
2023/06/27 01:55:36;;;;;;;3.08;1.25;;;21.90;66.60;;;;;;4993478;28;20073;-80
2023/06/27 01:58:01;;;;;;;2.13;1.20;;;21.90;66.70;;;;;;4994318;28;20029;-84
2023/06/27 02:00:27;;;;;;;3.42;0.95;;;21.90;66.70;;;;;;4994609;28;20085;-80
2023/06/27 02:02:53;;;;;;;3.10;1.17;;;21.90;67.00;;;;;;4993594;28;20041;-80
2023/06/27 02:05:18;;;;;;;3.47;0.88;;;21.90;67.10;;;;;;4993108;28;20023;-80
2023/06/27 02:07:44;;;;;;;2.25;1.08;;;21.80;67.20;;;;;;4993410;28;20379;-80
2023/06/27 02:10:10;;;;;;;4.93;0.80;;;21.90;67.40;;;;;;4993020;28;20030;-80
2023/06/27 02:12:35;;;;;;;3.65;1.00;;;21.80;67.40;;;;;;5002070;28;20080;-80
2023/06/27 02:15:01;;;;;;;5.05;1.05;;;21.80;67.70;;;;;;5000712;28;20022;-84
2023/06/27 02:17:27;;;;;;;6.25;1.10;;;21.80;67.80;;;;;;5008666;28;20042;-80
2023/06/27 02:19:52;;;;;;;6.75;1.00;;;21.70;67.90;;;;;;5009534;28;20025;-79
2023/06/27 02:22:18;;;;;;;4.13;1.10;;;21.70;68.20;;;;;;4992645;28;20141;-80
2023/06/27 02:24:44;;;;;;;3.05;0.90;;;21.70;68.40;;;;;;4993583;28;20034;-82
2023/06/27 02:27:09;;;;;;;2.78;1.02;;;21.70;68.20;;;;;;4994252;28;20030;-82
2023/06/27 02:29:35;;;;;;;4.10;1.60;;;21.70;68.50;;;;;;4993279;28;20456;-82
2023/06/27 02:32:01;;;;;;;5.97;1.23;;;21.60;68.60;;;;;;4993283;28;20030;-81
2023/06/27 02:34:26;;;;;;;1.70;0.75;;;21.60;68.50;;;;;;4992608;28;20034;-81
2023/06/27 02:36:52;;;;;;;3.00;1.05;;;21.60;69.10;;;;;;4993202;28;20456;-80
2023/06/27 02:39:17;;;;;;;3.10;1.20;;;21.60;69.10;;;;;;4992835;28;20088;-81
2023/06/27 02:41:43;;;;;;;4.28;1.15;;;21.60;69.10;;;;;;4993044;28;20026;-80
2023/06/27 02:44:08;;;;;;;3.33;0.90;;;21.60;69.00;;;;;;4992596;28;20038;-81
2023/06/27 02:46:35;;;;;;;3.13;0.80;;;21.60;69.00;;;;;;5001009;28;20045;-81
2023/06/27 02:49:01;;;;;;;3.83;0.90;;;21.50;69.40;;;;;;5027224;28;20052;-79
2023/06/27 02:51:26;;;;;;;2.53;1.20;;;21.50;69.40;;;;;;4999064;28;20038;-78
2023/06/27 02:53:52;;;;;;;3.35;0.90;;;21.50;69.60;;;;;;5013789;28;20382;-78
2023/06/27 02:56:18;;;;;;;1.60;0.85;;;21.50;69.80;;;;;;4995775;28;20105;-79
2023/06/27 02:58:43;;;;;;;1.65;0.82;;;21.50;70.00;;;;;;4996095;28;20025;-79
2023/06/27 03:01:09;;;;;;;1.88;0.82;;;21.50;70.00;;;;;;5012443;28;20478;-78
2023/06/27 03:03:34;;;;;;;3.45;0.88;;;21.40;70.20;;;;;;5021076;28;20080;-79
2023/06/27 03:06:08;;;;;;;3.75;1.00;;;21.40;70.20;;;;;;5032659;28;20028;-78
2023/06/27 03:08:35;;;;;;;3.78;1.15;;;21.40;70.70;;;;;;5017757;28;20029;-79
2023/06/27 03:11:00;;;;;;;2.33;1.10;;;21.40;71.10;;;;;;4999887;28;20113;-79
2023/06/27 03:13:26;;;;;;;2.72;1.00;;;21.40;70.40;;;;;;4999673;28;20141;-80
2023/06/27 03:15:51;;;;;;;3.50;0.90;;;21.40;70.20;;;;;;5017393;28;20409;-79
2023/06/27 03:18:17;;;;;;;2.65;0.93;;;21.40;70.20;;;;;;5023683;28;20037;-78
2023/06/27 03:20:43;;;;;;;1.45;0.95;;;21.40;70.40;;;;;;5019419;28;20378;-78
2023/06/27 03:23:08;;;;;;;5.35;1.48;;;21.40;70.60;;;;;;5005375;28;20061;-78
2023/06/27 03:25:34;;;;;;;1.83;0.93;;;21.40;70.60;;;;;;5000163;28;20359;-79
2023/06/27 03:28:01;;;;;;;5.53;1.00;;;21.40;70.70;;;;;;5019502;28;20026;-78
2023/06/27 03:30:27;;;;;;;5.45;1.08;;;21.40;70.80;;;;;;5036507;28;20022;-78
2023/06/27 03:32:52;;;;;;;3.05;1.13;;;21.30;70.90;;;;;;5036936;28;20086;-78
2023/06/27 03:35:18;;;;;;;3.45;1.05;;;21.30;71.10;;;;;;5018938;28;20033;-78
2023/06/27 03:37:43;;;;;;;4.05;1.20;;;21.30;71.30;;;;;;5015777;28;20459;-79
2023/06/27 03:40:09;;;;;;;5.22;1.10;;;21.30;71.50;;;;;;5015569;28;20033;-79
2023/06/27 03:42:35;;;;;;;3.88;1.30;;;21.30;71.60;;;;;;5016082;28;20038;-78
2023/06/27 03:45:01;;;;;;;2.42;1.27;;;21.20;71.60;;;;;;5016072;28;20053;-79
2023/06/27 03:47:27;;;;;;;2.78;1.00;;;21.20;71.70;;;;;;5015068;28;20132;-79
2023/06/27 03:49:52;;;;;;;3.47;1.45;;;21.20;72.20;;;;;;4999417;28;20165;-79
2023/06/27 03:52:18;;;;;;;3.78;1.17;;;21.20;72.10;;;;;;4998766;28;20053;-79
2023/06/27 03:54:43;;;;;;;3.70;1.15;;;21.30;72.00;;;;;;5009074;28;20032;-79
2023/06/27 03:57:09;;;;;;;4.30;1.10;;;21.20;72.10;;;;;;5004280;28;20477;-79
2023/06/27 03:59:35;;;;;;;3.75;1.20;;;21.20;72.20;;;;;;4999374;28;20368;-79
2023/06/27 04:02:00;;;;;;;3.28;1.45;;;21.10;72.30;;;;;;5018599;28;20079;-79
2023/06/27 04:04:26;;;;;;;3.50;0.90;;;21.10;72.30;;;;;;5035571;28;20596;-79
2023/06/27 04:06:52;;;;;;;2.40;0.75;;;21.20;72.20;;;;;;5006909;28;20467;-78
2023/06/27 04:09:18;;;;;;;7.35;1.25;;;21.20;72.10;;;;;;4998196;28;20072;-78
2023/06/27 04:11:43;;;;;;;1.90;1.08;;;21.20;72.00;;;;;;5033048;28;20053;-79
2023/06/27 04:14:09;;;;;;;4.45;1.17;;;21.20;72.30;;;;;;5017876;28;20470;-79
2023/06/27 04:16:34;;;;;;;3.20;1.10;;;21.10;72.90;;;;;;5017743;28;20060;-78
2023/06/27 04:19:00;;;;;;;3.22;0.80;;;21.20;73.00;;;;;;5016097;28;20049;-78
2023/06/27 04:21:26;;;;;;;3.88;1.15;;;21.20;73.50;;;;;;5001386;28;20061;-78
2023/06/27 04:23:54;;;;;;;3.42;0.77;;;21.20;73.40;;;;;;5014605;28;20029;-78
2023/06/27 04:26:20;;;;;;;0.70;0.60;;;21.10;73.00;;;;;;5004938;28;20021;-79
2023/06/27 04:28:47;;;;;;;4.55;1.10;;;21.10;73.50;;;;;;5035659;28;20489;-78
2023/06/27 04:31:13;;;;;;;5.05;0.90;;;21.20;73.50;;;;;;5017574;28;20489;-79
2023/06/27 04:33:39;;;;;;;3.17;1.30;;;21.10;73.60;;;;;;5017742;28;20025;-79
2023/06/27 04:36:09;;;;;;;2.50;0.80;;;21.20;73.70;;;;;;5017903;28;20022;-78
2023/06/27 04:38:39;;;;;;;3.47;1.10;;;21.20;72.50;;;;;;5014260;28;20361;-78
2023/06/27 04:41:05;;;;;;;2.72;1.30;;;21.10;72.40;;;;;;5014786;28;20459;-78
2023/06/27 04:43:32;;;;;;;1.67;0.95;;;21.20;72.80;;;;;;5015313;28;20050;-80
2023/06/27 04:45:59;;;;;;;2.22;0.75;;;21.20;72.50;;;;;;5015953;28;20028;-79
2023/06/27 04:48:24;;;;;;;3.17;1.20;;;21.10;72.10;;;;;;5008250;28;20054;-79
2023/06/27 04:50:50;;;;;;;5.13;0.80;;;21.10;72.50;;;;;;4998427;28;20117;-78
2023/06/27 04:53:19;;;;;;;2.40;1.00;;;21.10;72.50;;;;;;4997644;28;20464;-79
2023/06/27 04:55:45;;;;;;;3.03;0.95;;;21.10;72.40;;;;;;4998152;28;20022;-78
2023/06/27 04:58:11;;;;;;;2.95;0.80;;;21.10;72.10;;;;;;5015138;28;20033;-82
2023/06/27 05:00:36;;;;;;;4.53;1.10;;;21.10;72.20;;;;;;4997654;28;20030;-78
2023/06/27 05:03:02;;;;;;;4.82;0.98;;;21.20;72.10;;;;;;5015108;28;20076;-78
2023/06/27 05:05:32;;;;;;;3.10;1.08;;;21.10;72.40;;;;;;4997066;28;20057;-78
2023/06/27 05:08:01;;;;;;;1.38;0.85;;;21.10;72.10;;;;;;5014702;28;20033;-77
2023/06/27 05:10:27;;;;;;;3.72;1.08;;;21.10;72.30;;;;;;5014642;28;20026;-78
2023/06/27 05:12:53;;;;;;;3.42;0.90;;;21.20;71.50;;;;;;4997818;28;20531;-78
2023/06/27 05:15:18;;;;;;;1.90;0.82;;;21.20;71.70;;;;;;4997242;28;20482;-78
2023/06/27 05:17:51;;;;;;;3.05;1.00;;;21.20;71.50;;;;;;5011843;28;20061;-78
2023/06/27 05:20:17;;;;;;;3.90;1.02;;;21.20;71.60;;;;;;4997028;28;20026;-79
2023/06/27 05:22:43;;;;;;;4.22;0.90;;;21.20;71.30;;;;;;5014751;28;20451;-78
2023/06/27 05:25:09;;;;;;;2.72;0.88;;;21.30;70.70;;;;;;4997587;28;20477;-82
2023/06/27 05:27:34;;;;;;;1.65;0.73;;;21.30;70.80;;;;;;5014531;28;20025;-78
2023/06/27 05:30:00;;;;;;;2.35;0.98;;;21.30;71.00;;;;;;4997177;28;20033;-78
2023/06/27 05:32:25;;;;;;;3.28;0.90;;;21.30;71.20;;;;;;5021201;28;20033;-78
2023/06/27 05:34:51;;;;;;;2.97;0.82;;;21.30;70.70;;;;;;5022884;28;20386;-78
2023/06/27 05:37:16;;;;;;;3.03;0.70;;;21.20;70.30;;;;;;5010773;28;20045;-80
2023/06/27 05:39:42;;;;;;;1.70;0.57;;;21.10;70.10;;;;;;5016773;28;20026;-78
2023/06/27 05:42:08;;;;;;;3.08;0.93;;;21.10;69.60;;;;;;5033864;28;20025;-79
2023/06/27 05:44:33;;;;;;;2.88;0.70;;;21.10;69.20;;;;;;5034027;28;20083;-78
2023/06/27 05:47:00;;;;;;;2.45;0.70;;;21.20;69.70;;;;;;5003314;28;20041;-79
2023/06/27 05:49:25;;;;;;;5.72;0.93;;;21.20;69.30;;;;;;5011171;28;20067;-78
2023/06/27 05:51:51;;;;;;;3.20;0.77;;;21.30;68.60;;;;;;5012760;28;20598;-79
2023/06/27 05:54:17;;;;;;;4.22;0.80;;;21.30;68.40;;;;;;4996249;28;20060;-78
2023/06/27 05:56:42;;;;;;;1.38;0.63;;;21.30;68.30;;;;;;4996913;28;20118;-78
2023/06/27 05:59:08;;;;;;;2.90;0.93;;;21.30;68.20;;;;;;4996718;28;20022;-78
2023/06/27 06:01:35;;;;;;;1.65;0.75;;;21.30;68.40;;;;;;4996995;28;20026;-79
2023/06/27 06:04:01;;;;;;;1.55;0.95;;;21.30;68.50;;;;;;5011784;28;20037;-77
2023/06/27 06:06:27;;;;;;;2.80;1.10;;;21.30;69.00;;;;;;4996213;28;20075;-80
2023/06/27 06:08:53;;;;;;;7.25;1.08;;;21.30;68.90;;;;;;4996177;28;20026;-80
2023/06/27 06:11:18;;;;;;;3.15;0.90;;;21.30;68.90;;;;;;4995749;28;20026;-79
2023/06/27 06:13:44;;;;;;;2.47;0.75;;;21.20;69.00;;;;;;5012113;28;20029;-78
2023/06/27 06:16:10;;;;;;;4.63;0.80;;;21.30;69.20;;;;;;5001467;28;20025;-79
2023/06/27 06:18:35;;;;;;;3.15;1.13;;;21.30;69.60;;;;;;5004100;28;20038;-80
2023/06/27 06:21:01;;;;;;;3.35;0.80;;;21.30;69.10;;;;;;5025685;28;20030;-79
2023/06/27 06:23:26;;;;;;;4.35;1.10;;;21.20;69.80;;;;;;5032595;28;20459;-79
2023/06/27 06:25:52;;;;;;;4.05;1.10;;;21.20;70.50;;;;;;4998868;28;20025;-79
2023/06/27 06:28:17;;;;;;;2.15;0.88;;;21.30;70.70;;;;;;5025830;28;20029;-80
2023/06/27 06:30:43;;;;;;;4.10;1.08;;;21.30;70.60;;;;;;4995771;28;20129;-77
2023/06/27 06:33:09;;;;;;;3.58;0.85;;;21.30;69.80;;;;;;5008999;28;20442;-79
2023/06/27 06:35:34;;;;;;;4.78;0.98;;;21.40;69.00;;;;;;4997722;28;20112;-79
2023/06/27 06:38:01;;;;;;;1.83;0.47;;;21.40;68.50;;;;;;5012010;28;20080;-78
2023/06/27 06:40:29;;;;;;;2.92;0.80;;;21.40;68.00;;;;;;5012194;28;20030;-79
2023/06/27 06:42:54;;;;;;;2.97;0.63;;;21.40;67.50;;;;;;5013556;28;20034;-79
2023/06/27 06:45:20;;;;;;;2.17;1.00;;;21.30;68.00;;;;;;5028255;28;20502;-80
2023/06/27 06:47:46;;;;;;;2.65;1.10;;;21.30;68.10;;;;;;5013667;28;20049;-79
2023/06/27 06:50:11;;;;;;;3.15;0.95;;;21.40;68.60;;;;;;4995906;28;20018;-78
2023/06/27 06:52:37;;;;;;;2.95;0.73;;;21.40;68.90;;;;;;5013017;28;20045;-79
2023/06/27 06:55:02;;;;;;;3.15;0.52;;;21.40;68.30;;;;;;4995591;28;20041;-80
2023/06/27 06:57:28;;;;;;;2.35;0.70;;;21.50;68.00;;;;;;5011479;28;20025;-79
2023/06/27 06:59:54;;;;;;;2.88;0.88;;;21.50;67.40;;;;;;5015201;28;20025;-79
2023/06/27 07:02:19;;;;;;;2.65;0.80;;;21.50;67.60;;;;;;5007783;28;20529;-80
2023/06/27 07:04:45;;;;;;;1.92;0.80;;;21.50;67.60;;;;;;5005903;28;20056;-78
2023/06/27 07:07:10;;;;;;;2.63;0.90;;;21.50;68.00;;;;;;5015171;28;20021;-79
2023/06/27 07:09:36;;;;;;;2.53;0.75;;;21.50;68.30;;;;;;5032326;28;20466;-80
2023/06/27 07:12:01;;;;;;;3.10;0.60;;;21.50;68.00;;;;;;5010981;28;20485;-80
2023/06/27 07:14:27;;;;;;;1.88;0.70;;;21.40;68.30;;;;;;4995364;28;20037;-79
2023/06/27 07:16:53;;;;;;;2.60;0.82;;;21.40;68.90;;;;;;4995834;28;20030;-81
2023/06/27 07:19:18;;;;;;;2.67;1.17;;;21.40;68.80;;;;;;5009798;28;20034;-82
2023/06/27 07:21:44;;;;;;;3.85;0.90;;;21.40;68.80;;;;;;4998441;28;20064;-78
2023/06/27 07:24:09;;;;;;;1.48;0.65;;;21.40;69.10;;;;;;5032641;28;20029;-80
2023/06/27 07:26:35;;;;;;;2.63;0.80;;;21.40;68.90;;;;;;5015199;28;20588;-81
2023/06/27 07:29:01;;;;;;;3.30;0.90;;;21.40;69.00;;;;;;5015377;28;20034;-82
2023/06/27 07:31:27;;;;;;;1.92;0.75;;;21.40;69.40;;;;;;5014726;28;20033;-81
2023/06/27 07:33:52;;;;;;;1.05;0.70;;;21.40;69.60;;;;;;5016424;28;20029;-81
2023/06/27 07:36:18;;;;;;;3.20;0.70;;;21.40;69.40;;;;;;5025258;28;20378;-85
2023/06/27 07:38:43;;;;;;;3.65;0.80;;;21.40;69.80;;;;;;4992786;28;20033;-80
2023/06/27 07:41:09;;;;;;;2.70;0.90;;;21.50;69.70;;;;;;5010668;28;20030;-82
2023/06/27 07:43:35;;;;;;;2.30;0.88;;;21.50;69.20;;;;;;5014513;28;20143;-79
2023/06/27 07:46:00;;;;;;;2.58;0.85;;;21.50;69.20;;;;;;4996001;28;20026;-80
2023/06/27 07:48:26;;;;;;;2.22;0.95;;;21.50;69.10;;;;;;5019904;28;20137;-78
2023/06/27 07:50:51;;;;;;;3.50;1.05;;;21.60;68.80;;;;;;5009820;28;20382;-80
2023/06/27 07:53:17;;;;;;;2.13;0.82;;;21.70;68.80;;;;;;5008272;28;20053;-80
2023/06/27 07:55:43;;;;;;;3.78;1.17;;;21.80;68.10;;;;;;5014414;28;20021;-81
2023/06/27 07:58:09;;;;;;;3.47;1.10;;;21.80;67.90;;;;;;5006836;28;20522;-82
2023/06/27 08:00:35;;;;;;;2.15;0.70;;;22.00;68.00;;;;;;5009361;28;20042;-81
2023/06/27 08:03:00;;;;;;;2.10;0.80;;;22.10;67.30;;;;;;5015085;28;20042;-81
2023/06/27 08:05:28;;;;;;;4.47;1.00;;;22.20;67.40;;;;;;5009664;28;20026;-82
2023/06/27 08:07:54;;;;;;;2.85;0.80;;;22.30;67.20;;;;;;5010777;28;20025;-83
2023/06/27 08:10:19;;;;;;;1.65;0.80;;;22.30;65.40;;;;;;5001863;28;20452;-82
2023/06/27 08:12:45;;;;;;;2.55;0.75;;;22.20;64.70;;;;;;5019485;28;20029;-81
2023/06/27 08:15:11;;;;;;;2.35;0.90;;;22.20;65.40;;;;;;5004032;28;20033;-81
2023/06/27 08:17:36;;;;;;;1.83;0.70;;;22.20;66.40;;;;;;5021501;28;20104;-82
2023/06/27 08:20:02;;;;;;;3.30;0.90;;;22.20;65.60;;;;;;5013636;28;20156;-81
2023/06/27 08:22:28;;;;;;;6.68;1.35;;;22.30;63.60;;;;;;5013292;28;20481;-84
2023/06/27 08:24:54;;;;;;;4.88;1.10;;;22.30;65.00;;;;;;5001911;28;20456;-84
2023/06/27 08:27:19;;;;;;;1.92;0.90;;;22.40;65.10;;;;;;5009270;28;20028;-81
2023/06/27 08:29:45;;;;;;;3.30;0.88;;;22.40;65.70;;;;;;5010955;28;20037;-80
2023/06/27 08:32:11;;;;;;;2.50;0.70;;;22.40;66.20;;;;;;5017637;28;20033;-83
2023/06/27 08:34:38;;;;;;;2.75;0.77;;;22.40;65.60;;;;;;5007447;28;20197;-83
2023/06/27 08:37:05;;;;;;;3.30;1.08;;;22.50;65.20;;;;;;5009798;28;20049;-81
2023/06/27 08:39:30;;;;;;;2.63;0.70;;;22.50;65.60;;;;;;5013112;28;20022;-82
2023/06/27 08:41:57;;;;;;;2.33;0.75;;;22.60;66.20;;;;;;5002307;28;20360;-81
2023/06/27 08:44:22;;;;;;;3.00;0.85;;;22.70;65.60;;;;;;5014557;28;20072;-80
2023/06/27 08:46:49;;;;;;;3.55;0.80;;;22.70;65.00;;;;;;5025624;28;20041;-79
2023/06/27 08:49:24;;;;;;;1.70;0.80;;;22.70;64.30;;;;;;5016059;28;20080;-79
2023/06/27 08:51:53;;;;;;;2.92;0.90;;;22.70;64.20;;;;;;5020020;28;20490;-79
2023/06/27 08:54:34;;;;;;;3.20;0.75;;;22.60;64.60;;;;;;5001645;28;20375;-81
2023/06/27 08:57:01;;;;;;;3.70;0.70;;;22.70;63.60;;;;;;5032082;28;20112;-80
2023/06/27 08:59:32;;;;;;;3.13;0.70;;;22.80;63.00;;;;;;5005082;28;20049;-78
2023/06/27 09:02:00;;;;;;;3.83;0.98;;;22.90;62.30;;;;;;4991257;28;20022;-81
2023/06/27 09:04:27;;;;;;;1.98;0.60;;;22.90;62.40;;;;;;5017232;28;20105;-81
2023/06/27 09:06:54;;;;;;;1.85;1.00;;;23.00;62.00;;;;;;5022718;28;20029;-83
2023/06/27 09:09:21;;;;;;;1.75;0.60;;;23.10;61.70;;;;;;5023614;28;20492;-84
2023/06/27 09:11:50;;;;;;;1.67;0.70;;;23.20;61.20;;;;;;5031909;28;20037;-83
2023/06/27 09:14:15;;;;;;;1.27;0.70;;;23.10;60.60;;;;;;5015261;28;20471;-83
2023/06/27 09:16:41;;;;;;;5.43;1.10;;;23.20;60.20;;;;;;5006870;28;20042;-83
2023/06/27 09:19:07;;;;;;;3.70;1.00;;;23.20;59.40;;;;;;5020079;28;20034;-84
2023/06/27 09:21:34;;;;;;;3.08;0.80;;;23.30;59.50;;;;;;5001545;28;20024;-81
2023/06/27 09:24:12;;;;;;;5.00;1.05;;;23.30;60.00;;;;;;5014731;28;20038;-81
2023/06/27 09:26:38;;;;;;;8.05;1.52;;;23.40;60.30;;;;;;5010415;28;20029;-78
2023/06/27 09:29:04;;;;;;;15.73;1.90;;;23.50;60.10;;;;;;4999126;28;20029;-81
2023/06/27 09:31:30;;;;;;;5.47;1.60;;;23.60;60.30;;;;;;5001400;28;20030;-82
2023/06/27 09:34:12;;;;;;;7.72;1.00;;;23.60;59.80;;;;;;5008699;28;20030;-80
2023/06/27 09:36:41;;;;;;;2.22;1.05;;;23.70;60.30;;;;;;5005033;28;20034;-80
2023/06/27 09:39:15;;;;;;;1.92;0.70;;;23.80;60.00;;;;;;5004682;28;20030;-80
2023/06/27 09:41:46;;;;;;;1.08;0.80;;;23.80;59.50;;;;;;5000102;28;20018;-81
2023/06/27 09:44:14;;;;;;;1.00;0.73;;;23.80;59.30;;;;;;5000469;28;20029;-81
2023/06/27 09:46:41;;;;;;;3.60;1.00;;;23.80;60.10;;;;;;5005919;28;20037;-84
2023/06/27 09:49:08;;;;;;;3.85;1.02;;;23.90;59.40;;;;;;4998159;28;20049;-83
2023/06/27 09:51:34;;;;;;;4.20;0.90;;;23.90;59.10;;;;;;5011098;28;20037;-85
2023/06/27 09:53:59;;;;;;;2.58;0.90;;;23.90;58.60;;;;;;5006160;28;20029;-84
2023/06/27 09:56:30;;;;;;;6.10;1.02;;;24.00;59.40;;;;;;5009223;28;20034;-84
2023/06/27 09:58:56;;;;;;;4.15;1.27;;;24.00;59.90;;;;;;5013171;28;20029;-85
2023/06/27 10:01:25;;;;;;;2.55;0.90;;;24.10;59.90;;;;;;5021260;28;20034;-84
2023/06/27 10:03:53;;;;;;;3.25;1.08;;;24.30;59.20;;;;;;5015017;28;20029;-81
2023/06/27 10:06:19;;;;;;;4.13;1.00;;;24.40;58.90;;;;;;5015661;28;20048;-81
2023/06/27 10:08:45;;;;;;;3.50;1.35;;;24.30;59.30;;;;;;4995569;28;20440;-80
2023/06/27 10:11:11;;;;;;;2.42;1.02;;;24.30;59.50;;;;;;5011885;28;20029;-80
2023/06/27 10:13:37;;;;;;;4.40;1.33;;;24.40;59.70;;;;;;5007995;28;20293;-83
2023/06/27 10:16:03;;;;;;;6.13;1.15;;;24.40;59.30;;;;;;5001443;28;20091;-81
2023/06/27 10:18:29;;;;;;;3.35;1.05;;;24.40;59.20;;;;;;5004085;28;20034;-82
2023/06/27 10:20:56;;;;;;;2.63;1.05;;;24.30;59.00;;;;;;5006631;28;20086;-86
2023/06/27 10:23:22;;;;;;;5.13;1.23;;;24.20;58.80;;;;;;5006428;28;20445;-84
2023/06/27 10:25:48;;;;;;;5.47;1.02;;;24.30;58.60;;;;;;5025311;28;20029;-84
2023/06/27 10:28:15;;;;;;;3.15;1.05;;;24.40;59.00;;;;;;4996479;28;20030;-85
2023/06/27 10:30:46;;;;;;;4.32;1.05;;;24.40;59.30;;;;;;4996320;28;20029;-84
2023/06/27 10:33:31;;;;;;;7.63;2.20;;;24.20;59.10;;;;;;5025750;28;20025;-83
2023/06/27 10:35:57;;;;;;;6.03;2.55;;;24.30;58.80;;;;;;4996347;28;20041;-81
2023/06/27 10:38:32;;;;;;;5.07;3.00;;;24.50;59.50;;;;;;5014265;28;20440;-80
2023/06/27 10:41:05;;;;;;;5.03;1.38;;;24.50;58.70;;;;;;5007551;28;20463;-79
2023/06/27 10:43:46;;;;;;;1.98;1.30;;;24.50;58.80;;;;;;4995379;28;20037;-82
2023/06/27 10:46:26;;;;;;;2.78;1.05;;;24.50;59.50;;;;;;5038299;28;20018;-83
2023/06/27 10:49:03;;;;;;;4.20;1.20;;;24.50;59.50;;;;;;5029684;28;20115;-82
2023/06/27 10:51:41;;;;;;;6.47;1.17;;;24.50;59.70;;;;;;5009595;28;20018;-80
2023/06/27 10:54:07;;;;;;;5.57;1.40;;;24.40;59.90;;;;;;5026926;28;20113;-80
2023/06/27 10:56:34;;;;;;;3.03;1.17;;;24.50;59.90;;;;;;5015292;28;20098;-81
2023/06/27 10:59:03;;;;;;;5.70;1.10;;;24.60;60.60;;;;;;5003727;28;20025;-83
2023/06/27 11:01:30;;;;;;;3.75;1.10;;;24.70;59.40;;;;;;5015429;28;20018;-81
2023/06/27 11:03:59;;;;;;;2.17;0.90;;;24.70;59.60;;;;;;5024281;28;20068;-80
2023/06/27 11:06:41;;;;;;;1.88;1.00;;;24.70;59.50;;;;;;5018396;28;20017;-79
2023/06/27 11:09:10;;;;;;;5.22;1.40;;;24.70;58.80;;;;;;5012122;28;20244;-79
2023/06/27 11:11:37;;;;;;;8.40;1.30;;;24.70;59.40;;;;;;5007066;28;20037;-79
2023/06/27 11:14:11;;;;;;;2.58;1.20;;;24.80;59.20;;;;;;5007116;28;20033;-80
2023/06/27 11:16:36;;;;;;;5.05;1.10;;;24.70;59.40;;;;;;5006152;28;20113;-81
2023/06/27 11:19:02;;;;;;;3.75;1.10;;;24.70;59.70;;;;;;5027680;28;20061;-82
2023/06/27 11:21:29;;;;;;;2.70;1.00;;;24.80;59.90;;;;;;5013706;28;20022;-80
2023/06/27 11:23:57;;;;;;;7.45;1.30;;;24.90;59.30;;;;;;5039394;28;20113;-79
2023/06/27 11:26:23;;;;;;;2.40;1.00;;;24.90;59.20;;;;;;5026101;28;20024;-79
2023/06/27 11:28:48;;;;;;;5.15;1.10;;;24.90;58.90;;;;;;5010002;28;20025;-84
2023/06/27 11:31:14;;;;;;;2.90;0.93;;;24.90;58.70;;;;;;5029174;28;20051;-81
2023/06/27 11:33:40;;;;;;;3.35;1.15;;;25.00;59.10;;;;;;5014316;28;20619;-81
2023/06/27 11:36:07;;;;;;;1.83;0.93;;;25.20;59.60;;;;;;4999368;28;20486;-82
2023/06/27 11:38:33;;;;;;;1.63;0.90;;;25.20;58.40;;;;;;5022364;28;20030;-84
2023/06/27 11:40:59;;;;;;;3.20;1.05;;;25.20;58.50;;;;;;5034277;28;20104;-85
2023/06/27 11:43:25;;;;;;;2.10;1.00;;;25.30;58.70;;;;;;5011130;28;20038;-84
2023/06/27 11:45:58;;;;;;;4.63;1.13;;;25.40;58.70;;;;;;5006411;28;20029;-83
2023/06/27 11:48:24;;;;;;;3.83;1.17;;;25.30;57.50;;;;;;5012767;28;20054;-83
2023/06/27 11:51:09;;;;;;;5.22;1.20;;;25.30;58.00;;;;;;5011193;28;20072;-84
2023/06/27 11:53:35;;;;;;;4.25;1.30;;;25.20;58.60;;;;;;4993286;28;20038;-84
2023/06/27 11:56:02;;;;;;;1.92;1.08;;;25.10;59.00;;;;;;4997252;28;20034;-83
2023/06/27 11:58:29;;;;;;;2.28;1.00;;;25.20;58.70;;;;;;5008073;28;20038;-83
2023/06/27 12:00:58;;;;;;;4.63;1.38;;;25.30;58.10;;;;;;5016199;28;20064;-84
2023/06/27 12:03:29;;;;;;;3.58;1.25;;;25.50;58.20;;;;;;5015076;28;20038;-83
2023/06/27 12:05:57;;;;;;;3.17;1.10;;;25.40;57.10;;;;;;5015982;28;20111;-84
2023/06/27 12:08:29;;;;;;;2.70;0.90;;;25.40;57.80;;;;;;5007947;28;20023;-81
2023/06/27 12:10:57;;;;;;;3.75;1.00;;;25.50;58.10;;;;;;4997033;28;20033;-84
2023/06/27 12:13:51;;;;;;;6.38;1.33;;;25.40;57.80;;;;;;4976340;28;20165;-83
2023/06/27 12:16:33;;;;;;;1.58;0.80;;;25.40;58.50;;;;;;4996080;28;20038;-82
2023/06/27 12:19:08;;;;;;;2.97;1.10;;;25.60;57.90;;;;;;5001842;28;20033;-83
2023/06/27 12:21:34;;;;;;;3.47;1.20;;;25.50;57.80;;;;;;4994761;28;20361;-80
2023/06/27 12:24:00;;;;;;;6.40;1.00;;;25.50;57.30;;;;;;4999590;28;20041;-82
2023/06/27 12:26:25;;;;;;;3.30;1.00;;;25.60;56.30;;;;;;5014371;28;20026;-80
2023/06/27 12:28:58;;;;;;;2.47;1.02;;;25.70;56.30;;;;;;5012566;28;20033;-81
2023/06/27 12:31:24;;;;;;;2.65;0.80;;;25.70;56.60;;;;;;4983415;28;20029;-80
2023/06/27 12:33:51;;;;;;;3.08;1.00;;;25.80;56.70;;;;;;5002116;28;20047;-81
2023/06/27 12:36:22;;;;;;;2.67;1.13;;;25.90;56.70;;;;;;4996524;28;20030;-84
2023/06/27 12:38:49;;;;;;;2.13;1.00;;;25.90;57.20;;;;;;4996416;28;20026;-85
2023/06/27 12:41:16;;;;;;;1.65;1.00;;;25.70;57.10;;;;;;4995428;28;20031;-83
2023/06/27 12:43:42;;;;;;;1.95;1.02;;;25.60;56.50;;;;;;4999861;28;20029;-83
2023/06/27 12:46:08;;;;;;;3.60;1.00;;;25.40;56.80;;;;;;4996124;28;20061;-85
2023/06/27 12:48:34;;;;;;;3.05;0.90;;;25.30;57.30;;;;;;5008375;28;20065;-84